Time;durP1;ratioP1;P1;durP2;ratioP2;P2;SDS_P1;SDS_P2;PMS_P1;PMS_P2;Temp;Humidity;BMP_temperature;BMP_pressure;BME280_temperature;BME280_humidity;BME280_pressure;Samples;Min_cycle;Max_cycle;Signal;HPM_P1;HPM_P2
2023/09/09 00:01:42;;;;;;;3.33;2.47;;;11.20;93.90;;;;;;5098075;28;20433;-89
2023/09/09 00:04:07;;;;;;;5.97;2.58;;;11.20;93.90;;;;;;5102955;28;20099;-87
2023/09/09 00:06:33;;;;;;;2.88;2.17;;;11.20;94.00;;;;;;5097888;28;20046;-87
2023/09/09 00:08:59;;;;;;;3.08;1.95;;;11.10;94.10;;;;;;5092739;28;20125;-86
2023/09/09 00:11:25;;;;;;;3.53;2.22;;;11.10;94.20;;;;;;5093615;28;20449;-85
2023/09/09 00:13:51;;;;;;;2.50;1.90;;;11.10;94.30;;;;;;5094693;28;20081;-87
2023/09/09 00:16:17;;;;;;;4.75;2.40;;;11.10;94.30;;;;;;5096551;28;20027;-89
2023/09/09 00:18:43;;;;;;;3.33;1.80;;;11.10;94.40;;;;;;5096081;28;20031;-86
2023/09/09 00:21:09;;;;;;;4.70;1.75;;;11.10;94.40;;;;;;5095722;28;20381;-85
2023/09/09 00:23:35;;;;;;;2.80;2.05;;;11.00;94.30;;;;;;5092655;28;20028;-86
2023/09/09 00:26:01;;;;;;;2.65;1.85;;;11.00;94.50;;;;;;5094699;28;20051;-86
2023/09/09 00:28:26;;;;;;;2.85;1.95;;;11.00;94.60;;;;;;5085129;28;20068;-87
2023/09/09 00:30:53;;;;;;;3.60;2.50;;;11.00;94.60;;;;;;5088943;28;20153;-86
2023/09/09 00:33:19;;;;;;;2.67;1.98;;;11.00;94.90;;;;;;5087033;28;20025;-87
2023/09/09 00:35:45;;;;;;;5.75;2.05;;;11.00;94.60;;;;;;5092607;28;20078;-88
2023/09/09 00:38:13;;;;;;;4.85;2.92;;;10.90;94.70;;;;;;5088959;28;20059;-87
2023/09/09 00:40:42;;;;;;;4.47;2.47;;;10.90;94.70;;;;;;5072053;28;20021;-87
2023/09/09 00:43:07;;;;;;;4.70;2.85;;;10.90;94.80;;;;;;5076864;28;20028;-85
2023/09/09 00:45:34;;;;;;;4.95;3.60;;;10.90;95.10;;;;;;5073469;28;20115;-87
2023/09/09 00:48:00;;;;;;;5.35;3.65;;;10.90;94.90;;;;;;5090817;28;20473;-86
2023/09/09 00:50:27;;;;;;;3.70;3.22;;;10.90;95.00;;;;;;5092207;28;20032;-84
2023/09/09 00:52:54;;;;;;;;;;;10.80;95.10;;;;;;5094886;28;20488;-85
2023/09/09 00:55:23;;;;;;;10.83;6.27;;;10.90;94.90;;;;;;5080604;28;19904;-85
2023/09/09 00:57:49;;;;;;;7.97;5.07;;;10.80;95.10;;;;;;5108499;28;20381;-84
2023/09/09 01:00:17;;;;;;;8.15;5.25;;;10.80;95.20;;;;;;5091773;28;20027;-84
2023/09/09 01:02:43;;;;;;;6.72;5.20;;;10.80;95.30;;;;;;5107052;28;20032;-85
2023/09/09 01:05:10;;;;;;;7.32;5.55;;;10.80;95.40;;;;;;5091119;28;20035;-83
2023/09/09 01:07:48;;;;;;;10.35;5.88;;;10.80;95.50;;;;;;5091941;28;20044;-85
2023/09/09 01:10:18;;;;;;;6.97;4.60;;;10.80;95.50;;;;;;5076761;28;20127;-86
2023/09/09 01:12:44;;;;;;;8.02;4.53;;;10.80;95.50;;;;;;5093861;28;20027;-85
2023/09/09 01:15:11;;;;;;;6.05;4.68;;;10.80;95.50;;;;;;5102330;28;20114;-85
2023/09/09 01:17:38;;;;;;;6.82;5.10;;;10.90;95.60;;;;;;5077545;28;20020;-84
2023/09/09 01:20:08;;;;;;;6.72;4.88;;;10.90;95.60;;;;;;5073893;28;20377;-85
2023/09/09 01:22:36;;;;;;;7.18;4.75;;;10.90;95.50;;;;;;5076770;28;20529;-84
2023/09/09 01:25:05;;;;;;;6.80;4.53;;;10.90;95.50;;;;;;5104553;28;20036;-84
2023/09/09 01:27:32;;;;;;;4.38;3.90;;;10.90;95.50;;;;;;5092250;28;20086;-84
2023/09/09 01:29:58;;;;;;;8.30;4.18;;;10.90;95.50;;;;;;5079184;28;20024;-85
2023/09/09 01:32:25;;;;;;;6.60;4.35;;;10.90;95.50;;;;;;5076509;28;20017;-84
2023/09/09 01:34:51;;;;;;;8.55;5.05;;;10.80;95.60;;;;;;5094089;28;20061;-85
2023/09/09 01:37:17;;;;;;;7.82;5.43;;;10.80;95.70;;;;;;5102372;28;20102;-84
2023/09/09 01:39:43;;;;;;;8.15;4.32;;;10.80;95.70;;;;;;5112363;28;20009;-83
2023/09/09 01:42:08;;;;;;;8.27;4.47;;;10.80;95.60;;;;;;5100235;28;20067;-84
2023/09/09 01:44:34;;;;;;;5.50;4.70;;;10.70;95.70;;;;;;5084942;28;20124;-85
2023/09/09 01:47:00;;;;;;;8.18;5.10;;;10.70;95.80;;;;;;5089724;28;20137;-85
2023/09/09 01:49:26;;;;;;;9.73;5.00;;;10.80;95.90;;;;;;5092001;28;20085;-85
2023/09/09 01:51:52;;;;;;;8.60;6.05;;;10.80;95.80;;;;;;5091208;28;20028;-84
2023/09/09 01:54:18;;;;;;;8.63;5.70;;;10.80;95.80;;;;;;5071979;28;20036;-83
2023/09/09 01:56:43;;;;;;;8.68;6.03;;;10.80;95.80;;;;;;5084274;28;20077;-84
2023/09/09 01:59:09;;;;;;;7.47;5.68;;;10.80;95.80;;;;;;5096571;28;20020;-85
2023/09/09 02:01:35;;;;;;;7.22;4.93;;;10.80;95.80;;;;;;5096788;28;20024;-85
2023/09/09 02:04:01;;;;;;;12.73;4.93;;;10.80;95.80;;;;;;5081122;28;20024;-85
2023/09/09 02:06:27;;;;;;;7.13;5.22;;;10.80;95.80;;;;;;5083139;28;20027;-83
2023/09/09 02:08:53;;;;;;;5.77;4.97;;;10.80;95.80;;;;;;5092733;28;20663;-84
2023/09/09 02:11:19;;;;;;;7.55;5.18;;;10.70;95.80;;;;;;5094936;28;20350;-83
2023/09/09 02:13:45;;;;;;;6.40;4.20;;;10.70;95.90;;;;;;5097379;28;20488;-84
2023/09/09 02:16:11;;;;;;;8.07;3.90;;;10.70;95.90;;;;;;5097545;28;20031;-84
2023/09/09 02:18:40;;;;;;;5.50;4.15;;;10.70;96.00;;;;;;5088932;28;20436;-83
2023/09/09 02:21:06;;;;;;;7.43;4.38;;;10.70;96.00;;;;;;5091869;28;20030;-84
2023/09/09 02:23:32;;;;;;;4.80;3.67;;;10.80;96.00;;;;;;5097440;28;20028;-84
2023/09/09 02:25:58;;;;;;;7.20;3.40;;;10.80;95.90;;;;;;5083352;28;20297;-85
2023/09/09 02:28:25;;;;;;;4.90;3.60;;;10.80;95.90;;;;;;5097430;28;20039;-86
2023/09/09 02:30:51;;;;;;;7.35;3.17;;;10.90;95.80;;;;;;5085190;28;20405;-86
2023/09/09 02:33:16;;;;;;;4.75;3.13;;;10.90;95.70;;;;;;5094555;28;20024;-87
2023/09/09 02:35:43;;;;;;;6.25;2.60;;;10.90;95.70;;;;;;5086616;28;20028;-85
2023/09/09 02:38:09;;;;;;;4.13;3.20;;;10.90;95.70;;;;;;5077492;28;20017;-86
2023/09/09 02:40:35;;;;;;;5.95;3.10;;;11.00;95.90;;;;;;5095684;28;20103;-84
2023/09/09 02:43:01;;;;;;;5.47;3.75;;;11.00;95.60;;;;;;5095181;28;20031;-83
2023/09/09 02:45:27;;;;;;;4.75;2.22;;;11.00;95.70;;;;;;5093576;28;20020;-85
2023/09/09 02:47:53;;;;;;;2.42;2.13;;;11.00;95.60;;;;;;5095597;28;20373;-86
2023/09/09 02:50:19;;;;;;;3.20;2.25;;;11.00;95.60;;;;;;5092178;28;20028;-85
2023/09/09 02:52:48;;;;;;;2.95;2.30;;;11.00;95.70;;;;;;5077399;28;20008;-85
2023/09/09 02:55:13;;;;;;;4.38;2.10;;;11.00;95.70;;;;;;5075612;28;20099;-85
2023/09/09 02:57:39;;;;;;;4.97;2.13;;;11.00;95.70;;;;;;5089956;28;20047;-85
2023/09/09 03:00:09;;;;;;;3.15;2.40;;;11.00;95.70;;;;;;5119908;28;20039;-85
2023/09/09 03:02:35;;;;;;;3.40;2.13;;;11.10;95.70;;;;;;5109737;28;20024;-84
2023/09/09 03:05:01;;;;;;;6.07;2.60;;;11.00;95.70;;;;;;5105336;28;20236;-83
2023/09/09 03:07:27;;;;;;;3.22;2.05;;;11.10;95.60;;;;;;5105303;28;20036;-85
2023/09/09 03:09:52;;;;;;;4.18;2.80;;;11.10;95.60;;;;;;5097067;28;20039;-86
2023/09/09 03:12:20;;;;;;;3.28;2.20;;;11.10;95.60;;;;;;5096054;28;20023;-84
2023/09/09 03:14:53;;;;;;;2.92;2.20;;;11.10;95.60;;;;;;5084214;28;20016;-86
2023/09/09 03:17:19;;;;;;;3.65;1.90;;;11.10;95.60;;;;;;5079976;28;20021;-84
2023/09/09 03:19:45;;;;;;;5.20;2.40;;;11.10;95.50;;;;;;5081000;28;20020;-85
2023/09/09 03:22:11;;;;;;;2.25;2.00;;;11.10;95.50;;;;;;5079809;28;20489;-86
2023/09/09 03:24:36;;;;;;;3.75;2.17;;;11.10;95.50;;;;;;5088662;28;20023;-85
2023/09/09 03:27:02;;;;;;;2.72;2.17;;;11.10;95.50;;;;;;5073696;28;20031;-84
2023/09/09 03:29:28;;;;;;;3.03;2.53;;;11.10;95.40;;;;;;5087586;28;20033;-84
2023/09/09 03:31:54;;;;;;;2.17;1.98;;;11.10;95.30;;;;;;5081209;28;20081;-83
2023/09/09 03:34:20;;;;;;;2.67;1.77;;;11.10;95.20;;;;;;5080408;28;20559;-84
2023/09/09 03:36:46;;;;;;;2.42;1.83;;;11.10;95.20;;;;;;5087118;28;20377;-84
2023/09/09 03:39:11;;;;;;;2.95;2.20;;;11.10;95.30;;;;;;5084282;28;20461;-83
2023/09/09 03:41:40;;;;;;;5.13;2.00;;;11.20;95.30;;;;;;5095586;28;20028;-84
2023/09/09 03:44:06;;;;;;;2.72;2.20;;;11.20;95.20;;;;;;5103743;28;20028;-85
2023/09/09 03:46:32;;;;;;;2.17;1.77;;;11.30;94.90;;;;;;5105335;28;20027;-83
2023/09/09 03:48:58;;;;;;;6.07;4.28;;;11.20;94.70;;;;;;5083811;28;20024;-85
2023/09/09 03:51:24;;;;;;;4.18;1.85;;;11.20;94.70;;;;;;5093614;28;20024;-84
2023/09/09 03:53:50;;;;;;;3.42;1.80;;;11.10;94.70;;;;;;5094833;28;20507;-84
2023/09/09 03:56:17;;;;;;;3.22;2.13;;;11.00;94.80;;;;;;5093944;28;20020;-84
2023/09/09 03:58:43;;;;;;;6.40;1.85;;;11.00;94.90;;;;;;5092163;28;20383;-84
2023/09/09 04:01:12;;;;;;;6.38;2.00;;;11.10;95.00;;;;;;5085224;28;20096;-84
2023/09/09 04:03:44;;;;;;;2.58;1.90;;;11.20;95.00;;;;;;5104590;28;20023;-84
2023/09/09 04:06:12;;;;;;;4.65;1.80;;;11.40;94.80;;;;;;5116677;28;20024;-85
2023/09/09 04:08:39;;;;;;;3.53;2.38;;;11.50;94.50;;;;;;5110076;28;20048;-84
2023/09/09 04:11:05;;;;;;;2.20;1.80;;;11.50;94.70;;;;;;5111862;28;20039;-84
2023/09/09 04:13:32;;;;;;;5.72;4.65;;;11.50;94.70;;;;;;5085452;28;20028;-85
2023/09/09 04:15:59;;;;;;;5.88;1.50;;;11.60;94.90;;;;;;5079203;28;20461;-86
2023/09/09 04:18:26;;;;;;;1.98;1.63;;;11.80;94.90;;;;;;5094154;28;20051;-84
2023/09/09 04:20:52;;;;;;;2.55;1.55;;;12.10;94.30;;;;;;5095421;28;20020;-86
2023/09/09 04:23:18;;;;;;;2.75;1.50;;;12.50;93.70;;;;;;5093689;28;20030;-83
2023/09/09 04:25:45;;;;;;;5.10;1.42;;;13.10;92.90;;;;;;5092416;28;20477;-84
2023/09/09 04:28:11;;;;;;;1.85;1.50;;;13.70;91.70;;;;;;5093181;28;20028;-85
2023/09/09 04:30:41;;;;;;;4.38;1.85;;;14.20;90.90;;;;;;5094269;28;20438;-83
2023/09/09 04:33:08;;;;;;;3.53;1.70;;;14.70;89.10;;;;;;5088300;28;20036;-86
2023/09/09 04:35:34;;;;;;;3.20;1.80;;;15.10;86.90;;;;;;5095347;28;20012;-85
2023/09/09 04:38:00;;;;;;;5.43;2.00;;;15.50;85.10;;;;;;5104487;28;20035;-85
2023/09/09 04:40:26;;;;;;;6.03;1.58;;;15.90;83.20;;;;;;5091930;28;20131;-83
2023/09/09 04:42:52;;;;;;;3.10;1.50;;;16.30;81.80;;;;;;5081710;28;20016;-83
2023/09/09 04:45:19;;;;;;;3.92;1.92;;;16.70;79.90;;;;;;5076735;28;20351;-84
2023/09/09 04:47:45;;;;;;;2.05;1.35;;;16.90;77.50;;;;;;5091825;28;20031;-84
2023/09/09 04:50:13;;;;;;;4.28;1.60;;;16.60;76.20;;;;;;5093434;28;20048;-85
2023/09/09 04:52:39;;;;;;;5.88;1.67;;;15.70;77.50;;;;;;5102750;28;20019;-85
2023/09/09 04:55:05;;;;;;;5.18;3.00;;;14.70;80.20;;;;;;5108962;28;20485;-84
2023/09/09 04:57:30;;;;;;;8.35;3.30;;;14.00;83.20;;;;;;5093894;28;20051;-86
2023/09/09 04:59:56;;;;;;;5.03;1.60;;;13.50;84.50;;;;;;5096018;28;20362;-85
2023/09/09 05:02:22;;;;;;;4.75;1.77;;;13.10;86.10;;;;;;5088352;28;20077;-87
2023/09/09 05:04:48;;;;;;;3.13;1.80;;;12.80;87.70;;;;;;5083738;28;20031;-86
2023/09/09 05:07:14;;;;;;;2.60;1.70;;;12.50;89.00;;;;;;5077251;28;20103;-87
2023/09/09 05:09:39;;;;;;;3.50;2.17;;;12.30;90.00;;;;;;5072233;28;20036;-87
2023/09/09 05:12:05;;;;;;;4.72;2.25;;;12.20;90.40;;;;;;5087411;28;20077;-86
2023/09/09 05:14:31;;;;;;;5.10;2.15;;;12.10;90.50;;;;;;5080604;28;20473;-86
2023/09/09 05:16:57;;;;;;;4.25;2.63;;;12.00;90.70;;;;;;5093354;28;20028;-85
2023/09/09 05:19:23;;;;;;;4.93;2.85;;;11.80;91.10;;;;;;5092436;28;20468;-86
2023/09/09 05:21:49;;;;;;;3.08;1.67;;;11.80;91.40;;;;;;5094043;28;20586;-87
2023/09/09 05:24:17;;;;;;;1.98;1.77;;;11.80;91.60;;;;;;5092769;28;20035;-86
2023/09/09 05:26:42;;;;;;;5.65;1.80;;;11.70;91.60;;;;;;5092835;28;20020;-86
2023/09/09 05:29:09;;;;;;;5.85;2.28;;;11.70;91.50;;;;;;5092181;28;20036;-86
2023/09/09 05:31:35;;;;;;;6.35;2.60;;;11.70;91.80;;;;;;5079039;28;20031;-87
2023/09/09 05:34:01;;;;;;;6.03;2.85;;;11.70;91.90;;;;;;5090296;28;20489;-84
2023/09/09 05:36:28;;;;;;;4.03;2.72;;;11.70;92.00;;;;;;5092228;28;20016;-86
2023/09/09 05:38:59;;;;;;;7.22;2.53;;;11.70;91.90;;;;;;5092444;28;20016;-86
2023/09/09 05:41:28;;;;;;;3.70;3.05;;;11.70;91.90;;;;;;5079032;28;20031;-85
2023/09/09 05:43:54;;;;;;;6.80;2.95;;;11.70;92.10;;;;;;5078774;28;20111;-87
2023/09/09 05:46:20;;;;;;;8.30;4.47;;;11.70;92.10;;;;;;5091476;28;20167;-86
2023/09/09 05:48:46;;;;;;;6.30;2.85;;;11.70;92.10;;;;;;5101192;28;20020;-86
2023/09/09 05:51:12;;;;;;;5.47;3.83;;;11.70;92.10;;;;;;5095455;28;20016;-86
2023/09/09 05:53:38;;;;;;;7.05;3.33;;;11.80;92.10;;;;;;5093985;28;20043;-86
2023/09/09 05:56:04;;;;;;;9.10;3.95;;;11.80;92.10;;;;;;5100772;28;20020;-84
2023/09/09 05:58:29;;;;;;;8.32;3.47;;;11.90;92.00;;;;;;5100715;28;20773;-84
2023/09/09 06:00:55;;;;;;;5.60;2.80;;;11.90;91.80;;;;;;5079045;28;20016;-85
2023/09/09 06:03:21;;;;;;;3.70;3.10;;;12.00;91.90;;;;;;5086748;28;20028;-85
2023/09/09 06:05:47;;;;;;;6.78;3.33;;;12.80;92.10;;;;;;5079513;28;20087;-85
2023/09/09 06:08:13;;;;;;;12.98;7.20;;;14.50;90.80;;;;;;5082089;28;20103;-84
2023/09/09 06:10:39;;;;;;;6.18;2.78;;;16.50;83.80;;;;;;5095049;28;20116;-87
2023/09/09 06:13:05;;;;;;;4.47;2.80;;;18.10;75.90;;;;;;5090401;28;20099;-85
2023/09/09 06:15:30;;;;;;;4.22;2.80;;;18.50;71.40;;;;;;5087698;28;20381;-85
2023/09/09 06:17:57;;;;;;;4.45;3.47;;;18.80;70.60;;;;;;5093548;28;20016;-86
2023/09/09 06:20:23;;;;;;;2.67;2.45;;;19.20;70.10;;;;;;5093714;28;20020;-88
2023/09/09 06:22:49;;;;;;;5.53;3.20;;;19.90;65.80;;;;;;5079841;28;20024;-86
2023/09/09 06:25:14;;;;;;;5.72;2.67;;;20.30;65.00;;;;;;5094570;28;20017;-86
2023/09/09 06:27:40;;;;;;;7.78;2.70;;;20.80;63.30;;;;;;5095406;28;20048;-86
2023/09/09 06:30:06;;;;;;;4.30;3.17;;;20.90;62.00;;;;;;5085112;28;20090;-85
2023/09/09 06:32:32;;;;;;;7.40;2.72;;;20.10;61.70;;;;;;5096205;28;20036;-86
2023/09/09 06:34:58;;;;;;;2.58;1.58;;;18.90;64.40;;;;;;5092062;28;20024;-86
2023/09/09 06:37:24;;;;;;;4.95;2.10;;;17.80;65.10;;;;;;5089499;28;20031;-85
2023/09/09 06:39:50;;;;;;;2.72;1.70;;;17.20;67.80;;;;;;5093317;28;20039;-86
2023/09/09 06:42:15;;;;;;;5.00;2.05;;;17.20;68.60;;;;;;5090158;28;20020;-85
2023/09/09 06:44:41;;;;;;;6.78;2.05;;;17.50;68.30;;;;;;5110494;28;20031;-86
2023/09/09 06:47:10;;;;;;;5.25;2.80;;;17.80;67.10;;;;;;5096707;28;20053;-85
2023/09/09 06:49:35;;;;;;;7.25;2.33;;;17.80;66.60;;;;;;5095786;28;20032;-88
2023/09/09 06:52:01;;;;;;;3.75;2.53;;;17.70;66.10;;;;;;5094578;28;20031;-86
2023/09/09 06:54:27;;;;;;;4.97;1.48;;;17.50;66.00;;;;;;5096658;28;20491;-86
2023/09/09 06:56:53;;;;;;;5.18;1.98;;;17.30;66.10;;;;;;5095966;28;20458;-86
2023/09/09 06:59:19;;;;;;;6.70;1.77;;;17.50;65.60;;;;;;5088230;28;20025;-87
2023/09/09 07:01:44;;;;;;;5.22;1.77;;;17.90;65.30;;;;;;5088221;28;20024;-85
2023/09/09 07:04:10;;;;;;;6.63;1.95;;;18.90;64.90;;;;;;5094736;28;20035;-85
2023/09/09 07:06:36;;;;;;;4.53;1.77;;;20.00;60.60;;;;;;5095694;28;20016;-86
2023/09/09 07:09:02;;;;;;;3.53;1.60;;;21.00;58.30;;;;;;5079741;28;20096;-85
2023/09/09 07:11:28;;;;;;;5.20;1.95;;;21.00;56.10;;;;;;5095863;28;20028;-85
2023/09/09 07:13:54;;;;;;;2.97;1.50;;;20.10;57.30;;;;;;5095279;28;20030;-86
2023/09/09 07:16:21;;;;;;;3.25;1.92;;;19.30;59.10;;;;;;5086416;28;20020;-84
2023/09/09 07:18:47;;;;;;;4.65;1.92;;;18.30;61.00;;;;;;5088619;28;20016;-86
2023/09/09 07:21:13;;;;;;;6.18;1.70;;;17.70;63.30;;;;;;5094707;28;20030;-85
2023/09/09 07:23:39;;;;;;;7.07;1.77;;;17.40;63.30;;;;;;5094557;28;20027;-86
2023/09/09 07:26:05;;;;;;;3.70;1.70;;;17.00;64.30;;;;;;5094828;28;20031;-85
2023/09/09 07:28:31;;;;;;;8.10;1.73;;;16.60;65.20;;;;;;5096947;28;20020;-85
2023/09/09 07:31:02;;;;;;;5.07;1.73;;;16.20;66.20;;;;;;5093179;28;20024;-85
2023/09/09 07:33:28;;;;;;;5.55;1.60;;;15.80;66.70;;;;;;5074968;28;20024;-84
2023/09/09 07:35:54;;;;;;;2.95;1.30;;;15.50;67.90;;;;;;5090534;28;20035;-85
2023/09/09 07:38:20;;;;;;;4.90;1.65;;;15.30;68.10;;;;;;5091716;28;20021;-86
2023/09/09 07:40:46;;;;;;;6.63;1.52;;;15.30;68.50;;;;;;5095745;28;20066;-83
2023/09/09 07:43:12;;;;;;;3.75;1.67;;;15.20;68.70;;;;;;5094570;28;20024;-86
2023/09/09 07:45:37;;;;;;;5.55;2.30;;;15.10;69.00;;;;;;5097855;28;20032;-86
2023/09/09 07:48:05;;;;;;;2.75;2.10;;;15.00;69.60;;;;;;5111887;28;20016;-84
2023/09/09 07:50:31;;;;;;;5.40;2.65;;;14.90;70.20;;;;;;5099338;28;20390;-86
2023/09/09 07:52:56;;;;;;;4.57;2.10;;;14.70;71.10;;;;;;5097710;28;20077;-85
2023/09/09 07:55:22;;;;;;;6.32;2.70;;;14.70;72.50;;;;;;5102304;28;20024;-86
2023/09/09 07:57:48;;;;;;;4.97;2.40;;;14.70;72.40;;;;;;5092099;28;20124;-87
2023/09/09 08:00:14;;;;;;;7.82;1.73;;;14.80;72.00;;;;;;5080881;28;20024;-86
2023/09/09 08:02:40;;;;;;;4.32;1.92;;;14.80;72.20;;;;;;5099429;28;20020;-86
2023/09/09 08:05:06;;;;;;;6.45;1.77;;;14.80;72.00;;;;;;5095114;28;20503;-85
2023/09/09 08:07:32;;;;;;;4.82;1.73;;;14.80;72.40;;;;;;5090158;28;20111;-86
2023/09/09 08:10:00;;;;;;;3.05;1.52;;;14.90;72.70;;;;;;5086344;28;20032;-86
2023/09/09 08:12:25;;;;;;;5.68;2.05;;;14.90;72.30;;;;;;5093899;28;20039;-86
2023/09/09 08:15:06;;;;;;;3.90;2.33;;;14.80;72.60;;;;;;5096352;28;20020;-86
2023/09/09 08:17:33;;;;;;;2.90;2.20;;;14.60;73.10;;;;;;5079591;28;20016;-86
2023/09/09 08:19:58;;;;;;;7.90;2.53;;;14.60;73.70;;;;;;5097753;28;20381;-87
2023/09/09 08:22:28;;;;;;;6.28;1.67;;;14.60;73.80;;;;;;5097912;28;20035;-85
2023/09/09 08:24:54;;;;;;;5.78;1.77;;;14.50;73.90;;;;;;5093900;28;20020;-83
2023/09/09 08:27:20;;;;;;;7.18;2.10;;;14.50;74.10;;;;;;5092987;28;20443;-88
2023/09/09 08:29:46;;;;;;;2.85;1.42;;;14.50;74.00;;;;;;5097434;28;20028;-87
2023/09/09 08:32:12;;;;;;;4.95;1.88;;;14.50;74.20;;;;;;5105612;28;20027;-88
2023/09/09 08:34:38;;;;;;;4.28;1.65;;;14.40;74.30;;;;;;5102816;28;20420;-88
2023/09/09 08:37:04;;;;;;;4.03;1.85;;;14.30;74.40;;;;;;5085216;28;20034;-88
2023/09/09 08:39:30;;;;;;;4.65;1.55;;;14.10;74.90;;;;;;5084205;28;20036;-88
2023/09/09 08:42:05;;;;;;;2.67;1.38;;;14.00;75.60;;;;;;5097596;28;20504;-88
2023/09/09 08:44:59;;;;;;;3.38;1.38;;;14.10;76.10;;;;;;5091015;28;20024;-87
2023/09/09 08:47:26;;;;;;;3.40;1.48;;;14.10;76.00;;;;;;5092842;28;20024;-86
2023/09/09 08:49:54;;;;;;;3.15;1.17;;;14.10;76.10;;;;;;5088405;28;20593;-85
2023/09/09 08:52:25;;;;;;;4.47;1.70;;;14.20;76.20;;;;;;5087593;28;20035;-88
2023/09/09 08:54:52;;;;;;;3.95;1.48;;;14.30;75.90;;;;;;5093989;28;20032;-86
2023/09/09 08:57:17;;;;;;;5.57;1.60;;;14.20;76.00;;;;;;5089259;28;20040;-84
2023/09/09 08:59:46;;;;;;;5.28;1.63;;;14.10;76.40;;;;;;5074422;28;20054;-85
2023/09/09 09:02:13;;;;;;;6.38;1.60;;;14.10;76.90;;;;;;5086528;28;20032;-84
2023/09/09 09:04:40;;;;;;;3.88;1.48;;;14.00;77.20;;;;;;5073170;28;20027;-86
2023/09/09 09:07:07;;;;;;;9.63;2.10;;;14.00;77.40;;;;;;5088148;28;20069;-85
2023/09/09 09:09:34;;;;;;;5.60;1.27;;;14.10;78.00;;;;;;5089828;28;20032;-87
2023/09/09 09:12:01;;;;;;;2.28;1.50;;;14.20;77.20;;;;;;5097593;28;20020;-88
2023/09/09 09:14:27;;;;;;;3.47;1.13;;;14.10;77.20;;;;;;5111089;28;20020;-88
2023/09/09 09:16:54;;;;;;;2.65;1.50;;;14.10;77.30;;;;;;5090674;28;20186;-86
2023/09/09 09:19:27;;;;;;;8.23;1.48;;;14.10;77.50;;;;;;5097560;28;20039;-86
2023/09/09 09:21:56;;;;;;;13.68;2.03;;;14.10;77.80;;;;;;5093592;28;20035;-81
2023/09/09 09:24:24;;;;;;;6.07;1.65;;;14.20;77.90;;;;;;5099982;28;20127;-82
2023/09/09 09:26:56;;;;;;;3.13;2.00;;;14.30;77.60;;;;;;5101045;28;20012;-87
2023/09/09 09:29:22;;;;;;;4.70;1.88;;;14.40;77.40;;;;;;5109005;28;20092;-86
2023/09/09 09:31:53;;;;;;;2.70;1.63;;;14.50;77.40;;;;;;5107428;28;20024;-84
2023/09/09 09:34:20;;;;;;;9.20;2.03;;;14.50;77.70;;;;;;5102427;28;20023;-86
2023/09/09 09:36:46;;;;;;;3.80;1.52;;;14.40;77.90;;;;;;5091512;28;20047;-84
2023/09/09 09:39:14;;;;;;;5.43;1.80;;;14.40;78.00;;;;;;5084456;28;20509;-89
2023/09/09 09:41:43;;;;;;;;;;;14.30;78.20;;;;;;5090272;28;20020;-91
2023/09/09 09:44:20;;;;;;;3.58;1.58;;;14.30;78.20;;;;;;5087123;28;19904;-90
2023/09/09 09:47:00;;;;;;;5.37;1.67;;;14.30;78.60;;;;;;5085134;28;20047;-87
2023/09/09 09:49:44;;;;;;;2.58;1.60;;;14.20;79.00;;;;;;5096856;28;20288;-90
2023/09/09 09:52:24;;;;;;;3.95;1.77;;;14.10;79.40;;;;;;5097681;28;20050;-88
2023/09/09 09:54:53;;;;;;;5.97;2.03;;;14.10;79.80;;;;;;5095688;28;20426;-87
2023/09/09 09:57:21;;;;;;;3.03;1.73;;;14.20;80.00;;;;;;5094792;28;20020;-89
2023/09/09 09:59:47;;;;;;;3.42;1.92;;;14.20;80.00;;;;;;5092231;28;20111;-88
2023/09/09 10:02:15;;;;;;;4.85;1.98;;;14.20;80.10;;;;;;5093235;28;20020;-88
2023/09/09 10:04:58;;;;;;;3.45;2.10;;;14.20;80.50;;;;;;5100712;28;20028;-90
2023/09/09 10:07:26;;;;;;;3.80;1.92;;;14.30;81.10;;;;;;5077389;28;20047;-92
2023/09/09 10:10:07;;;;;;;3.63;1.80;;;14.40;80.30;;;;;;5103522;28;20032;-89
2023/09/09 10:12:50;;;;;;;5.45;2.25;;;14.40;80.40;;;;;;5081336;28;20081;-84
2023/09/09 10:15:16;;;;;;;4.05;2.40;;;14.40;80.70;;;;;;5092701;28;20107;-82
2023/09/09 10:17:44;;;;;;;3.90;2.45;;;14.50;80.90;;;;;;5086987;28;20024;-81
2023/09/09 10:20:11;;;;;;;4.97;2.35;;;14.70;80.90;;;;;;5088324;28;20020;-85
2023/09/09 10:22:39;;;;;;;4.75;1.80;;;14.80;80.40;;;;;;5098918;28;20028;-81
2023/09/09 10:25:10;;;;;;;7.38;1.95;;;15.00;79.90;;;;;;5107468;28;20024;-82
2023/09/09 10:27:37;;;;;;;2.72;2.13;;;14.90;79.50;;;;;;5093670;28;20028;-84
2023/09/09 10:30:03;;;;;;;3.10;2.10;;;14.80;80.20;;;;;;5091068;28;20036;-83
2023/09/09 10:32:30;;;;;;;2.30;1.90;;;14.90;80.70;;;;;;5094332;28;20076;-84
2023/09/09 10:34:58;;;;;;;3.45;1.77;;;15.00;80.60;;;;;;5089621;28;20012;-80
2023/09/09 10:37:25;;;;;;;;;;;15.10;80.40;;;;;;5094120;28;20031;-82
2023/09/09 10:39:51;;;;;;;5.57;2.25;;;15.10;79.80;;;;;;5094004;28;19915;-82
2023/09/09 10:42:18;;;;;;;6.03;1.77;;;14.90;80.60;;;;;;5091691;28;20035;-85
2023/09/09 10:44:51;;;;;;;2.90;2.17;;;14.70;81.20;;;;;;5095721;28;20027;-82
2023/09/09 10:47:17;;;;;;;7.07;2.97;;;14.70;82.60;;;;;;5093863;28;20025;-82
2023/09/09 10:49:42;;;;;;;2.90;2.20;;;14.70;82.40;;;;;;5093631;28;20081;-82
2023/09/09 10:52:32;;;;;;;3.38;2.35;;;14.80;82.00;;;;;;5081678;28;20020;-83
2023/09/09 10:55:13;;;;;;;6.03;2.83;;;14.80;82.00;;;;;;5094609;28;20020;-83
2023/09/09 10:57:40;;;;;;;4.65;2.42;;;14.80;82.80;;;;;;5090170;28;20016;-83
2023/09/09 11:00:10;;;;;;;3.53;2.53;;;14.80;82.40;;;;;;5107561;28;20373;-83
2023/09/09 11:02:46;;;;;;;4.40;2.20;;;14.70;82.70;;;;;;5094147;28;20039;-83
2023/09/09 11:05:15;;;;;;;3.58;2.50;;;14.70;83.00;;;;;;5095253;28;20401;-85
2023/09/09 11:07:44;;;;;;;6.47;2.95;;;14.80;83.20;;;;;;5095291;28;20044;-82
2023/09/09 11:10:21;;;;;;;5.60;2.95;;;14.70;83.80;;;;;;5094685;28;20040;-84
2023/09/09 11:12:56;;;;;;;7.93;2.90;;;14.70;83.90;;;;;;5089365;28;20479;-82
2023/09/09 11:15:25;;;;;;;3.35;2.17;;;14.80;84.00;;;;;;5094557;28;20028;-82
2023/09/09 11:17:51;;;;;;;5.28;2.78;;;14.80;83.80;;;;;;5088553;28;20024;-82
2023/09/09 11:20:20;;;;;;;5.00;3.13;;;14.80;84.10;;;;;;5092331;28;20080;-81
2023/09/09 11:22:46;;;;;;;4.75;2.92;;;14.80;84.30;;;;;;5082811;28;20016;-82
2023/09/09 11:25:14;;;;;;;4.82;2.90;;;14.90;84.40;;;;;;5091192;28;20377;-83
2023/09/09 11:27:41;;;;;;;7.22;3.25;;;15.00;85.10;;;;;;5082300;28;20081;-86
2023/09/09 11:30:07;;;;;;;6.78;3.65;;;15.10;84.20;;;;;;5083578;28;20047;-85
2023/09/09 11:32:33;;;;;;;8.23;3.40;;;15.30;83.90;;;;;;5091315;28;20423;-85
2023/09/09 11:34:59;;;;;;;9.35;3.90;;;15.50;83.60;;;;;;5085087;28;20036;-87
2023/09/09 11:37:26;;;;;;;7.05;3.47;;;15.60;83.00;;;;;;5093022;28;20035;-87
2023/09/09 11:39:53;;;;;;;7.40;5.25;;;15.70;82.40;;;;;;5094858;28;20052;-84
2023/09/09 11:42:19;;;;;;;6.22;3.30;;;15.80;82.70;;;;;;5087430;28;20025;-85
2023/09/09 11:44:46;;;;;;;8.38;3.70;;;16.00;81.80;;;;;;5080167;28;20024;-82
2023/09/09 11:47:14;;;;;;;9.40;3.53;;;16.10;81.40;;;;;;5093319;28;20020;-85
2023/09/09 11:49:42;;;;;;;12.98;3.28;;;16.20;81.30;;;;;;5095386;28;20036;-85
2023/09/09 11:52:08;;;;;;;6.53;4.68;;;16.30;81.70;;;;;;5081347;28;20020;-84
2023/09/09 11:54:35;;;;;;;6.70;3.63;;;16.50;80.70;;;;;;5094954;28;20099;-84
2023/09/09 11:57:06;;;;;;;6.40;3.50;;;16.50;80.20;;;;;;5087401;28;20660;-84
2023/09/09 11:59:42;;;;;;;5.18;3.25;;;16.50;80.80;;;;;;5087195;28;20061;-85
2023/09/09 12:02:07;;;;;;;10.50;4.22;;;16.50;80.90;;;;;;5095558;28;20035;-83
2023/09/09 12:04:33;;;;;;;8.80;3.92;;;16.60;80.90;;;;;;5095396;28;20024;-85
2023/09/09 12:06:59;;;;;;;7.47;3.60;;;16.70;80.70;;;;;;5078672;28;20099;-84
2023/09/09 12:09:25;;;;;;;8.07;4.70;;;16.70;80.60;;;;;;5094829;28;20473;-86
2023/09/09 12:11:52;;;;;;;5.47;3.65;;;16.70;80.80;;;;;;5096875;28;20037;-84
2023/09/09 12:14:18;;;;;;;7.73;3.50;;;16.70;80.90;;;;;;5103627;28;20061;-83
2023/09/09 12:16:46;;;;;;;8.48;3.58;;;16.60;81.20;;;;;;5095044;28;20268;-85
2023/09/09 12:19:13;;;;;;;7.70;3.90;;;16.60;81.50;;;;;;5094329;28;20024;-84
2023/09/09 12:21:45;;;;;;;;;;;16.50;82.20;;;;;;5106915;28;20020;-87
2023/09/09 12:24:11;;;;;;;8.25;3.75;;;16.40;81.60;;;;;;5087960;28;19912;-85
2023/09/09 12:26:36;;;;;;;5.18;3.63;;;16.40;82.40;;;;;;5082099;28;20478;-84
2023/09/09 12:29:10;;;;;;;8.27;3.85;;;16.40;82.70;;;;;;5081505;28;20028;-87
2023/09/09 12:31:58;;;;;;;7.97;4.13;;;16.40;82.90;;;;;;5084814;28;20111;-83
2023/09/09 12:34:25;;;;;;;5.25;3.65;;;16.30;83.20;;;;;;5106282;28;20045;-85
2023/09/09 12:36:57;;;;;;;8.73;4.60;;;16.30;83.50;;;;;;5101871;28;20073;-84
2023/09/09 12:39:24;;;;;;;8.25;4.07;;;16.30;83.50;;;;;;5093637;28;20377;-86
2023/09/09 12:42:22;;;;;;;6.38;4.60;;;16.30;83.20;;;;;;5093799;28;20039;-86
2023/09/09 12:44:50;;;;;;;6.53;3.50;;;16.30;83.40;;;;;;5092984;28;20071;-87
2023/09/09 12:47:23;;;;;;;9.88;5.75;;;16.30;83.50;;;;;;5094311;28;20032;-88
2023/09/09 12:49:50;;;;;;;4.70;3.30;;;16.30;83.80;;;;;;5094354;28;20028;-88